Hovedside
METAR-TAF:

METAR-TAF

Lufthavner :

Machala, Ecuador

breddegrad: 03-26-07S, lengdegrad: 079-58-40W, høyde over havet: 52 m

Gjeldene værobservasjon

Denne rapporten ble laget for 37 minutter siden, klokken 14:00 UTC
Vind 4 kt fra Øst-nordøst
Temperatur 27°C
Luftfuktighet 84%
Trykk 1012 hPa
Sikt 10 km eller mer
Brutte skyer i en høyde av 2600 ft
Spredte skyer i en høyde av 8000 ft

METAR: SERO 041400Z 06004KT 9999 BKN026 SCT080 27/24 Q1012

Tid: 09:37 (14:37 UTC)


TAF: fraværende

Værobservasjoner og værvarsel for over 4000 flyplasser (METAR- og TAF-rapporter).

Tilgjengelige stasjoner er representert av de røde og gule prikkene på kartet.

Hold musepekeren over prikken for å se navnet på stasjonen.

Klikk så for å se værobservasjoner og -varsler.

For å forandre kartet kan du klikke på den grønne knappen med svart kryss for å zoome inn, på den grønne knappen med strek for å zoome ut, eller på de grønne pilene for å se tilstøtende kart.


METAR-TAF: